Rankin, Texas
Current Conditions -  °F | °C
As of 2:53 PM on Wednesday 26 Nov 2014 (Local Time) from KMAF Reporting Station
Clear Clear  
Wind Chill: 60°   Ceiling: Unl
Heat Index: 60°   Visibility: 10mi
Dew Point: 26°   Wind: 5mph
Humidity: 27%   Direction: 40°NE
Pressure: 30.24"   Gusts: NA
Location:  31.22°N, 101.94°W
Report Text: KMAF 262053Z 04004KT 10SM CLR 16/M03 A3024 RMK AO2 SLP221 T01561033 55011
Loading
Personal Weather Stations






























Interactive Weather Map New forecast layout! Learn more

10-Day Weather Forecast

Advertisements
Track Severe Weather on mobile